This is the latest recevied weather packets stored in our database for station/object OK1FCB-1. If no packets are shown the sender has not sent any weather packets the latest 10 day(s).
| Time | Temp. | Humidity | Pressure | Rain* | Wind** | Luminosity | Snow |
|---|---|---|---|---|---|---|---|
| 1777919032 | 18.33° C | 45% | 1015.4 hPa | - | - | - | - |
| 1777917245 | 20.56° C | 41% | 1015.2 hPa | - | - | - | - |
| 1777917239 | 20.56° C | 41% | 1015.2 hPa | - | - | - | - |
| 1777914558 | 25.56° C | 33% | 1015.2 hPa | - | - | - | - |
| 1777914553 | 25.56° C | 33% | 1015.2 hPa | - | - | - | - |
| 1777913660 | 25.56° C | 34% | 1015.2 hPa | - | - | - | - |
| 1777912755 | 24.44° C | 34% | 1015.3 hPa | - | - | - | - |
| 1777910966 | 25.56° C | 33% | 1015.4 hPa | - | - | - | - |
| 1777910961 | 25.56° C | 33% | 1015.4 hPa | - | - | - | - |
| 1777910072 | 27.22° C | 31% | 1015.4 hPa | - | - | - | - |
| 1777910066 | 27.22° C | 31% | 1015.4 hPa | - | - | - | - |
| 1777908274 | 27.22° C | 31% | 1015.5 hPa | - | - | - | - |
| 1777907380 | 28.33° C | 29% | 1015.6 hPa | - | - | - | - |
| 1777903794 | 32.78° C | 26% | 1016 hPa | - | - | - | - |
| 1777897511 | 31.11° C | 28% | 1016.8 hPa | - | - | - | - |
| 1777896614 | 31.67° C | 28% | 1017 hPa | - | - | - | - |
| 1777896609 | 31.67° C | 28% | 1017 hPa | - | - | - | - |
| 1777893908 | 28.89° C | 29% | 1017.3 hPa | - | - | - | - |
| 1777893019 | 30° C | 29% | 1017.3 hPa | - | - | - | - |
| 1777892113 | 28.89° C | 28% | 1017.5 hPa | - | - | - | - |
| 1777890323 | 30° C | 29% | 1017.9 hPa | - | - | - | - |
| 1777890317 | 30° C | 29% | 1017.9 hPa | - | - | - | - |
| 1777884923 | 22.78° C | 35% | 1018.6 hPa | - | - | - | - |
| 1777884025 | 23.33° C | 34% | 1018.5 hPa | - | - | - | - |
| 1777883133 | 24.44° C | 33% | 1018.4 hPa | - | - | - | - |
* Rain since midnight (hover to see other rain measurements)
** Current wind speed in m/s (hover to see current wind gust speed)